sensor_id;sensor_type;location;lat;lon;timestamp;pressure;altitude;pressure_sealevel;temperature;humidity
56582;BME280;42463;52.214;21.238;2023-05-23T00:02:01;100350.23;;;15.19;55.08
56582;BME280;42463;52.214;21.238;2023-05-23T00:04:11;100350.63;;;15.18;55.28
56582;BME280;42463;52.214;21.238;2023-05-23T00:06:21;100349.37;;;15.17;55.33
56582;BME280;42463;52.214;21.238;2023-05-23T00:08:26;100346.04;;;15.17;55.20
56582;BME280;42463;52.214;21.238;2023-05-23T00:10:31;100344.25;;;15.15;55.10
56582;BME280;42463;52.214;21.238;2023-05-23T00:12:37;100345.19;;;15.14;55.20
56582;BME280;42463;52.214;21.238;2023-05-23T00:14:45;100345.77;;;15.11;55.16
56582;BME280;42463;52.214;21.238;2023-05-23T00:16:51;100344.17;;;15.11;55.07
56582;BME280;42463;52.214;21.238;2023-05-23T00:18:56;100344.45;;;15.11;55.24
56582;BME280;42463;52.214;21.238;2023-05-23T00:21:02;100341.94;;;15.09;55.04
56582;BME280;42463;52.214;21.238;2023-05-23T00:23:08;100340.75;;;15.08;55.29
56582;BME280;42463;52.214;21.238;2023-05-23T00:25:14;100342.78;;;15.07;55.38
56582;BME280;42463;52.214;21.238;2023-05-23T00:27:19;100338.15;;;15.05;55.65
56582;BME280;42463;52.214;21.238;2023-05-23T00:29:24;100338.59;;;15.05;55.58
56582;BME280;42463;52.214;21.238;2023-05-23T00:31:30;100338.27;;;15.04;55.68
56582;BME280;42463;52.214;21.238;2023-05-23T00:33:36;100335.83;;;15.02;55.68
56582;BME280;42463;52.214;21.238;2023-05-23T00:35:41;100332.61;;;15.02;55.63
56582;BME280;42463;52.214;21.238;2023-05-23T00:37:47;100332.45;;;15.00;55.74
56582;BME280;42463;52.214;21.238;2023-05-23T00:39:53;100328.26;;;15.00;55.67
56582;BME280;42463;52.214;21.238;2023-05-23T00:41:58;100333.72;;;15.00;55.65
56582;BME280;42463;52.214;21.238;2023-05-23T00:44:08;100333.73;;;14.99;55.81
56582;BME280;42463;52.214;21.238;2023-05-23T00:46:14;100333.85;;;14.97;55.71
56582;BME280;42463;52.214;21.238;2023-05-23T00:48:20;100325.64;;;14.92;55.79
56582;BME280;42463;52.214;21.238;2023-05-23T00:50:27;100325.66;;;14.89;55.89
56582;BME280;42463;52.214;21.238;2023-05-23T00:52:33;100334.14;;;14.88;55.88
56582;BME280;42463;52.214;21.238;2023-05-23T00:54:39;100334.42;;;14.86;55.93
56582;BME280;42463;52.214;21.238;2023-05-23T00:56:45;100333.03;;;14.83;55.95
56582;BME280;42463;52.214;21.238;2023-05-23T00:58:51;100327.79;;;14.82;55.94
56582;BME280;42463;52.214;21.238;2023-05-23T01:03:50;100329.23;;;14.79;56.06
56582;BME280;42463;52.214;21.238;2023-05-23T01:05:56;100334.71;;;14.77;56.01
56582;BME280;42463;52.214;21.238;2023-05-23T01:08:02;100332.21;;;14.75;55.96
56582;BME280;42463;52.214;21.238;2023-05-23T01:10:09;100330.38;;;14.73;56.14
56582;BME280;42463;52.214;21.238;2023-05-23T01:12:23;100329.09;;;14.70;56.07
56582;BME280;42463;52.214;21.238;2023-05-23T01:14:34;100334.02;;;14.67;56.07
56582;BME280;42463;52.214;21.238;2023-05-23T01:16:55;100334.85;;;14.64;56.14
56582;BME280;42463;52.214;21.238;2023-05-23T01:19:13;100337.39;;;14.62;56.27
56582;BME280;42463;52.214;21.238;2023-05-23T01:21:25;100336.95;;;14.61;56.42
56582;BME280;42463;52.214;21.238;2023-05-23T01:23:44;100334.40;;;14.59;56.29
56582;BME280;42463;52.214;21.238;2023-05-23T01:26:12;100336.21;;;14.57;56.32
56582;BME280;42463;52.214;21.238;2023-05-23T01:28:27;100335.75;;;14.56;56.45
56582;BME280;42463;52.214;21.238;2023-05-23T01:30:38;100337.35;;;14.54;56.44
56582;BME280;42463;52.214;21.238;2023-05-23T01:32:44;100334.36;;;14.52;56.39
56582;BME280;42463;52.214;21.238;2023-05-23T01:34:53;100329.57;;;14.50;56.60
56582;BME280;42463;52.214;21.238;2023-05-23T01:36:59;100328.48;;;14.48;56.50
56582;BME280;42463;52.214;21.238;2023-05-23T01:39:04;100330.14;;;14.46;56.59
56582;BME280;42463;52.214;21.238;2023-05-23T01:41:12;100330.48;;;14.43;56.60
56582;BME280;42463;52.214;21.238;2023-05-23T01:43:17;100327.20;;;14.39;56.55
56582;BME280;42463;52.214;21.238;2023-05-23T01:45:25;100328.67;;;14.39;56.75
56582;BME280;42463;52.214;21.238;2023-05-23T01:47:32;100325.02;;;14.37;56.84
56582;BME280;42463;52.214;21.238;2023-05-23T01:49:38;100323.56;;;14.35;57.04
56582;BME280;42463;52.214;21.238;2023-05-23T01:51:46;100323.84;;;14.34;56.79
56582;BME280;42463;52.214;21.238;2023-05-23T01:53:52;100318.64;;;14.29;56.88
56582;BME280;42463;52.214;21.238;2023-05-23T01:55:58;100323.27;;;14.29;56.92
56582;BME280;42463;52.214;21.238;2023-05-23T01:58:07;100321.70;;;14.26;56.90
56582;BME280;42463;52.214;21.238;2023-05-23T02:00:14;100314.57;;;14.24;56.95
56582;BME280;42463;52.214;21.238;2023-05-23T02:02:23;100319.21;;;14.23;56.98
56582;BME280;42463;52.214;21.238;2023-05-23T02:04:29;100318.77;;;14.21;56.95
56582;BME280;42463;52.214;21.238;2023-05-23T02:06:36;100321.36;;;14.19;56.90
56582;BME280;42463;52.214;21.238;2023-05-23T02:08:41;100316.84;;;14.17;56.97
56582;BME280;42463;52.214;21.238;2023-05-23T02:10:47;100314.83;;;14.16;56.99
56582;BME280;42463;52.214;21.238;2023-05-23T02:12:52;100311.39;;;14.15;56.92
56582;BME280;42463;52.214;21.238;2023-05-23T02:14:58;100309.00;;;14.14;56.83
56582;BME280;42463;52.214;21.238;2023-05-23T02:17:04;100308.73;;;14.14;57.02
56582;BME280;42463;52.214;21.238;2023-05-23T02:19:09;100304.86;;;14.12;57.09
56582;BME280;42463;52.214;21.238;2023-05-23T02:21:17;100303.02;;;14.10;57.07
56582;BME280;42463;52.214;21.238;2023-05-23T02:23:22;100303.95;;;14.09;56.98
56582;BME280;42463;52.214;21.238;2023-05-23T02:25:27;100297.52;;;14.08;57.16
56582;BME280;42463;52.214;21.238;2023-05-23T02:27:33;100294.48;;;14.05;57.15
56582;BME280;42463;52.214;21.238;2023-05-23T02:29:38;100293.39;;;14.04;57.09
56582;BME280;42463;52.214;21.238;2023-05-23T02:31:44;100294.15;;;14.03;57.04
56582;BME280;42463;52.214;21.238;2023-05-23T02:33:49;100289.96;;;14.02;57.20
56582;BME280;42463;52.214;21.238;2023-05-23T02:35:55;100283.81;;;13.98;57.17
56582;BME280;42463;52.214;21.238;2023-05-23T02:38:01;100288.84;;;13.97;57.24
56582;BME280;42463;52.214;21.238;2023-05-23T02:40:08;100287.11;;;13.94;57.30
56582;BME280;42463;52.214;21.238;2023-05-23T02:42:13;100287.89;;;13.90;57.51
56582;BME280;42463;52.214;21.238;2023-05-23T02:44:19;100287.30;;;13.89;57.41
56582;BME280;42463;52.214;21.238;2023-05-23T02:46:24;100282.23;;;13.88;57.48
56582;BME280;42463;52.214;21.238;2023-05-23T02:48:30;100284.69;;;13.86;57.48
56582;BME280;42463;52.214;21.238;2023-05-23T02:50:35;100281.46;;;13.87;57.40
56582;BME280;42463;52.214;21.238;2023-05-23T02:52:41;100282.77;;;13.88;57.54
56582;BME280;42463;52.214;21.238;2023-05-23T02:54:47;100282.23;;;13.88;57.49
56582;BME280;42463;52.214;21.238;2023-05-23T02:56:52;100280.92;;;13.87;57.58
56582;BME280;42463;52.214;21.238;2023-05-23T02:58:59;100281.30;;;13.87;57.49
56582;BME280;42463;52.214;21.238;2023-05-23T03:01:04;100281.14;;;13.87;57.36
56582;BME280;42463;52.214;21.238;2023-05-23T03:03:11;100280.43;;;13.87;57.39
56582;BME280;42463;52.214;21.238;2023-05-23T03:05:17;100278.10;;;13.86;57.43
56582;BME280;42463;52.214;21.238;2023-05-23T03:07:22;100281.70;;;13.86;57.33
56582;BME280;42463;52.214;21.238;2023-05-23T03:09:29;100280.22;;;13.85;57.54
56582;BME280;42463;52.214;21.238;2023-05-23T03:11:35;100277.83;;;13.84;57.41
56582;BME280;42463;52.214;21.238;2023-05-23T03:13:40;100276.95;;;13.85;57.60
56582;BME280;42463;52.214;21.238;2023-05-23T03:15:46;100274.00;;;13.86;57.67
56582;BME280;42463;52.214;21.238;2023-05-23T03:17:51;100276.17;;;13.87;57.59
56582;BME280;42463;52.214;21.238;2023-05-23T03:19:56;100278.08;;;13.89;57.66
56582;BME280;42463;52.214;21.238;2023-05-23T03:22:02;100279.65;;;13.92;57.54
56582;BME280;42463;52.214;21.238;2023-05-23T03:24:08;100281.48;;;13.94;57.34
56582;BME280;42463;52.214;21.238;2023-05-23T03:26:14;100280.49;;;13.98;57.66
56582;BME280;42463;52.214;21.238;2023-05-23T03:28:20;100278.45;;;14.01;57.62
56582;BME280;42463;52.214;21.238;2023-05-23T03:30:25;100278.92;;;14.04;57.50
56582;BME280;42463;52.214;21.238;2023-05-23T03:32:31;100281.58;;;14.09;57.62
56582;BME280;42463;52.214;21.238;2023-05-23T03:34:37;100281.67;;;14.14;57.65
56582;BME280;42463;52.214;21.238;2023-05-23T03:36:42;100280.23;;;14.17;57.78
56582;BME280;42463;52.214;21.238;2023-05-23T03:38:48;100281.19;;;14.21;57.85
56582;BME280;42463;52.214;21.238;2023-05-23T03:40:54;100279.52;;;14.25;58.30
56582;BME280;42463;52.214;21.238;2023-05-23T03:43:07;100280.33;;;14.28;58.61
56582;BME280;42463;52.214;21.238;2023-05-23T03:45:15;100283.14;;;14.32;58.47
56582;BME280;42463;52.214;21.238;2023-05-23T03:47:21;100280.55;;;14.36;58.39
56582;BME280;42463;52.214;21.238;2023-05-23T03:49:28;100280.73;;;14.40;58.32
56582;BME280;42463;52.214;21.238;2023-05-23T03:51:34;100283.16;;;14.44;58.37
56582;BME280;42463;52.214;21.238;2023-05-23T03:53:39;100281.42;;;14.49;58.60
56582;BME280;42463;52.214;21.238;2023-05-23T03:55:44;100281.55;;;14.54;58.60
56582;BME280;42463;52.214;21.238;2023-05-23T03:57:50;100279.13;;;14.59;58.59
56582;BME280;42463;52.214;21.238;2023-05-23T03:59:57;100276.86;;;14.65;58.65
56582;BME280;42463;52.214;21.238;2023-05-23T04:02:03;100274.36;;;14.71;58.85
56582;BME280;42463;52.214;21.238;2023-05-23T04:04:09;100270.98;;;14.76;58.86
56582;BME280;42463;52.214;21.238;2023-05-23T04:06:15;100270.83;;;14.82;58.87
56582;BME280;42463;52.214;21.238;2023-05-23T04:08:23;100270.45;;;14.87;58.53
56582;BME280;42463;52.214;21.238;2023-05-23T04:10:29;100269.52;;;14.95;58.45
56582;BME280;42463;52.214;21.238;2023-05-23T04:12:34;100268.20;;;15.00;58.21
56582;BME280;42463;52.214;21.238;2023-05-23T04:14:40;100267.54;;;15.08;57.92
56582;BME280;42463;52.214;21.238;2023-05-23T04:16:47;100267.36;;;15.15;58.00
56582;BME280;42463;52.214;21.238;2023-05-23T04:18:53;100266.70;;;15.21;57.62
56582;BME280;42463;52.214;21.238;2023-05-23T04:20:58;100261.13;;;15.26;57.51
56582;BME280;42463;52.214;21.238;2023-05-23T04:23:04;100264.26;;;15.35;56.98
56582;BME280;42463;52.214;21.238;2023-05-23T04:25:11;100262.27;;;15.42;56.65
56582;BME280;42463;52.214;21.238;2023-05-23T04:27:23;100265.48;;;15.49;56.90
56582;BME280;42463;52.214;21.238;2023-05-23T04:29:29;100266.89;;;15.54;56.81
56582;BME280;42463;52.214;21.238;2023-05-23T04:31:37;100265.77;;;15.61;56.20
56582;BME280;42463;52.214;21.238;2023-05-23T04:33:42;100263.48;;;15.69;55.71
56582;BME280;42463;52.214;21.238;2023-05-23T04:35:48;100263.36;;;15.75;55.41
56582;BME280;42463;52.214;21.238;2023-05-23T04:37:54;100260.23;;;15.81;55.33
56582;BME280;42463;52.214;21.238;2023-05-23T04:40:02;100260.48;;;15.86;54.87
56582;BME280;42463;52.214;21.238;2023-05-23T04:42:31;100262.52;;;15.94;54.70
56582;BME280;42463;52.214;21.238;2023-05-23T04:44:52;100263.27;;;16.01;54.63
56582;BME280;42463;52.214;21.238;2023-05-23T04:47:12;100261.56;;;16.08;54.70
56582;BME280;42463;52.214;21.238;2023-05-23T04:49:41;100265.82;;;16.17;55.02
56582;BME280;42463;52.214;21.238;2023-05-23T04:51:47;100266.48;;;16.24;55.05
56582;BME280;42463;52.214;21.238;2023-05-23T04:54:02;100261.33;;;16.32;54.57
56582;BME280;42463;52.214;21.238;2023-05-23T04:56:08;100261.20;;;16.38;53.86
56582;BME280;42463;52.214;21.238;2023-05-23T04:58:15;100262.42;;;16.43;53.70
56582;BME280;42463;52.214;21.238;2023-05-23T05:00:21;100261.79;;;16.49;53.51
56582;BME280;42463;52.214;21.238;2023-05-23T05:02:27;100258.84;;;16.55;53.39
56582;BME280;42463;52.214;21.238;2023-05-23T05:04:38;100257.93;;;16.61;53.23
56582;BME280;42463;52.214;21.238;2023-05-23T05:06:44;100257.78;;;16.67;52.96
56582;BME280;42463;52.214;21.238;2023-05-23T05:08:51;100256.92;;;16.69;52.80
56582;BME280;42463;52.214;21.238;2023-05-23T05:10:58;100264.11;;;16.76;52.43
56582;BME280;42463;52.214;21.238;2023-05-23T05:13:04;100257.95;;;16.80;52.22
56582;BME280;42463;52.214;21.238;2023-05-23T05:15:18;100252.77;;;16.85;52.08
56582;BME280;42463;52.214;21.238;2023-05-23T05:17:27;100249.98;;;16.91;51.95
56582;BME280;42463;52.214;21.238;2023-05-23T05:19:41;100247.09;;;17.00;52.24
56582;BME280;42463;52.214;21.238;2023-05-23T05:21:46;100246.10;;;17.06;52.30
56582;BME280;42463;52.214;21.238;2023-05-23T05:23:52;100243.91;;;17.12;52.03
56582;BME280;42463;52.214;21.238;2023-05-23T05:25:59;100241.27;;;17.16;52.19
56582;BME280;42463;52.214;21.238;2023-05-23T05:28:05;100245.71;;;17.28;51.78
56582;BME280;42463;52.214;21.238;2023-05-23T05:30:14;100246.02;;;17.35;51.53
56582;BME280;42463;52.214;21.238;2023-05-23T05:32:35;100239.98;;;17.41;51.39
56582;BME280;42463;52.214;21.238;2023-05-23T05:34:41;100239.57;;;17.47;51.56
56582;BME280;42463;52.214;21.238;2023-05-23T05:36:47;100238.36;;;17.55;51.28
56582;BME280;42463;52.214;21.238;2023-05-23T05:38:54;100239.38;;;17.62;51.18
56582;BME280;42463;52.214;21.238;2023-05-23T05:41:00;100240.16;;;17.70;50.87
56582;BME280;42463;52.214;21.238;2023-05-23T05:43:11;100241.90;;;17.76;50.35
56582;BME280;42463;52.214;21.238;2023-05-23T05:45:17;100240.42;;;17.81;50.17
56582;BME280;42463;52.214;21.238;2023-05-23T05:47:24;100243.27;;;17.89;50.24
56582;BME280;42463;52.214;21.238;2023-05-23T05:49:29;100245.31;;;17.96;50.22
56582;BME280;42463;52.214;21.238;2023-05-23T05:51:35;100248.38;;;18.04;49.73
56582;BME280;42463;52.214;21.238;2023-05-23T05:53:40;100248.73;;;18.10;49.26
56582;BME280;42463;52.214;21.238;2023-05-23T05:55:46;100243.65;;;18.16;48.92
56582;BME280;42463;52.214;21.238;2023-05-23T05:57:52;100242.86;;;18.25;48.98
56582;BME280;42463;52.214;21.238;2023-05-23T05:59:57;100240.57;;;18.33;48.16
56582;BME280;42463;52.214;21.238;2023-05-23T06:02:03;100241.56;;;18.40;47.75
56582;BME280;42463;52.214;21.238;2023-05-23T06:04:10;100239.55;;;18.46;47.68
56582;BME280;42463;52.214;21.238;2023-05-23T06:06:15;100234.80;;;18.55;47.49
56582;BME280;42463;52.214;21.238;2023-05-23T06:08:21;100234.30;;;18.60;46.80
56582;BME280;42463;52.214;21.238;2023-05-23T06:10:27;100231.17;;;18.67;46.67
56582;BME280;42463;52.214;21.238;2023-05-23T06:12:34;100233.86;;;18.75;46.48
56582;BME280;42463;52.214;21.238;2023-05-23T06:14:40;100229.81;;;18.83;46.80
56582;BME280;42463;52.214;21.238;2023-05-23T06:16:46;100227.83;;;18.92;46.54
56582;BME280;42463;52.214;21.238;2023-05-23T06:18:51;100224.74;;;19.00;46.36
56582;BME280;42463;52.214;21.238;2023-05-23T06:20:57;100227.11;;;19.08;45.90
56582;BME280;42463;52.214;21.238;2023-05-23T06:23:03;100224.56;;;19.15;45.59
56582;BME280;42463;52.214;21.238;2023-05-23T06:25:10;100219.06;;;19.23;45.23
56582;BME280;42463;52.214;21.238;2023-05-23T06:27:15;100218.10;;;19.32;44.87
56582;BME280;42463;52.214;21.238;2023-05-23T06:29:21;100218.23;;;19.41;44.66
56582;BME280;42463;52.214;21.238;2023-05-23T06:31:26;100219.61;;;19.49;44.43
56582;BME280;42463;52.214;21.238;2023-05-23T06:33:32;100220.25;;;19.56;44.30
56582;BME280;42463;52.214;21.238;2023-05-23T06:35:38;100219.12;;;19.65;44.50
56582;BME280;42463;52.214;21.238;2023-05-23T06:37:43;100216.48;;;19.72;43.78
56582;BME280;42463;52.214;21.238;2023-05-23T06:39:49;100220.87;;;19.80;43.83
56582;BME280;42463;52.214;21.238;2023-05-23T06:41:55;100221.17;;;19.86;43.66
56582;BME280;42463;52.214;21.238;2023-05-23T06:44:01;100218.55;;;19.94;43.98
56582;BME280;42463;52.214;21.238;2023-05-23T06:46:07;100214.91;;;20.02;43.63
56582;BME280;42463;52.214;21.238;2023-05-23T06:48:13;100211.70;;;20.07;43.44
56582;BME280;42463;52.214;21.238;2023-05-23T06:50:19;100212.52;;;20.17;43.19
56582;BME280;42463;52.214;21.238;2023-05-23T06:52:25;100209.32;;;20.24;43.10
56582;BME280;42463;52.214;21.238;2023-05-23T06:54:31;100204.75;;;20.31;43.00
56582;BME280;42463;52.214;21.238;2023-05-23T06:56:36;100205.23;;;20.39;42.74
56582;BME280;42463;52.214;21.238;2023-05-23T06:58:42;100203.21;;;20.45;41.61
56582;BME280;42463;52.214;21.238;2023-05-23T07:00:48;100201.04;;;20.51;42.05
56582;BME280;42463;52.214;21.238;2023-05-23T07:03:03;100199.80;;;20.58;41.82
56582;BME280;42463;52.214;21.238;2023-05-23T07:05:09;100197.06;;;20.64;41.59
56582;BME280;42463;52.214;21.238;2023-05-23T07:07:22;100191.80;;;20.70;40.68
56582;BME280;42463;52.214;21.238;2023-05-23T07:09:27;100188.52;;;20.72;40.51
56582;BME280;42463;52.214;21.238;2023-05-23T07:11:41;100185.08;;;20.77;40.14
56582;BME280;42463;52.214;21.238;2023-05-23T07:13:47;100186.41;;;20.80;40.01
56582;BME280;42463;52.214;21.238;2023-05-23T07:15:59;100182.48;;;20.85;40.38
56582;BME280;42463;52.214;21.238;2023-05-23T07:18:04;100181.53;;;20.90;40.27
56582;BME280;42463;52.214;21.238;2023-05-23T07:20:11;100180.24;;;20.97;40.48
56582;BME280;42463;52.214;21.238;2023-05-23T07:22:18;100177.13;;;21.06;40.94
56582;BME280;42463;52.214;21.238;2023-05-23T07:24:23;100173.31;;;21.13;40.62
56582;BME280;42463;52.214;21.238;2023-05-23T07:26:29;100176.10;;;21.24;40.47
56582;BME280;42463;52.214;21.238;2023-05-23T07:28:34;100177.83;;;21.31;39.73
56582;BME280;42463;52.214;21.238;2023-05-23T07:30:41;100172.42;;;21.36;39.02
56582;BME280;42463;52.214;21.238;2023-05-23T07:32:47;100171.94;;;21.42;39.40
56582;BME280;42463;52.214;21.238;2023-05-23T07:34:53;100172.13;;;21.48;39.49
56582;BME280;42463;52.214;21.238;2023-05-23T07:36:58;100169.38;;;21.54;39.14
56582;BME280;42463;52.214;21.238;2023-05-23T07:39:05;100168.36;;;21.60;38.54
56582;BME280;42463;52.214;21.238;2023-05-23T07:41:10;100168.84;;;21.67;38.29
56582;BME280;42463;52.214;21.238;2023-05-23T07:43:16;100159.98;;;21.70;38.43
56582;BME280;42463;52.214;21.238;2023-05-23T07:45:21;100165.14;;;21.80;37.69
56582;BME280;42463;52.214;21.238;2023-05-23T07:47:27;100169.05;;;21.86;37.97
56582;BME280;42463;52.214;21.238;2023-05-23T07:49:32;100166.71;;;21.92;37.71
56582;BME280;42463;52.214;21.238;2023-05-23T07:51:38;100157.18;;;21.93;37.65
56582;BME280;42463;52.214;21.238;2023-05-23T07:53:44;100163.98;;;22.03;36.85
56582;BME280;42463;52.214;21.238;2023-05-23T07:55:50;100166.20;;;22.07;36.52
56582;BME280;42463;52.214;21.238;2023-05-23T07:57:56;100160.80;;;22.11;36.52
56582;BME280;42463;52.214;21.238;2023-05-23T08:00:01;100155.08;;;22.16;36.23
56582;BME280;42463;52.214;21.238;2023-05-23T08:02:19;100152.59;;;22.26;36.46
56582;BME280;42463;52.214;21.238;2023-05-23T08:04:25;100152.86;;;22.31;35.40
56582;BME280;42463;52.214;21.238;2023-05-23T08:06:31;100149.08;;;22.33;34.76
56582;BME280;42463;52.214;21.238;2023-05-23T08:08:39;100153.14;;;22.36;34.71
56582;BME280;42463;52.214;21.238;2023-05-23T08:10:46;100152.02;;;22.38;34.81
56582;BME280;42463;52.214;21.238;2023-05-23T08:12:57;100145.52;;;22.40;34.77
56582;BME280;42463;52.214;21.238;2023-05-23T08:15:07;100145.21;;;22.42;34.59
56582;BME280;42463;52.214;21.238;2023-05-23T08:17:20;100140.20;;;22.46;34.55
56582;BME280;42463;52.214;21.238;2023-05-23T08:19:25;100143.06;;;22.53;34.72
56582;BME280;42463;52.214;21.238;2023-05-23T08:21:31;100144.76;;;22.58;33.64
56582;BME280;42463;52.214;21.238;2023-05-23T08:23:37;100140.68;;;22.59;33.04
56582;BME280;42463;52.214;21.238;2023-05-23T08:25:43;100142.27;;;22.64;32.84
56582;BME280;42463;52.214;21.238;2023-05-23T08:27:48;100140.72;;;22.65;32.58
56582;BME280;42463;52.214;21.238;2023-05-23T08:30:12;100137.94;;;22.67;32.14
56582;BME280;42463;52.214;21.238;2023-05-23T08:32:18;100140.77;;;22.69;31.98
56582;BME280;42463;52.214;21.238;2023-05-23T08:34:24;100138.29;;;22.72;31.99
56582;BME280;42463;52.214;21.238;2023-05-23T08:36:30;100140.08;;;22.74;31.13
56582;BME280;42463;52.214;21.238;2023-05-23T08:38:37;100134.80;;;22.74;32.22
56582;BME280;42463;52.214;21.238;2023-05-23T08:40:51;100129.06;;;22.77;32.44
56582;BME280;42463;52.214;21.238;2023-05-23T08:42:56;100132.92;;;22.81;32.69
56582;BME280;42463;52.214;21.238;2023-05-23T08:45:03;100128.85;;;22.86;32.49
56582;BME280;42463;52.214;21.238;2023-05-23T08:47:09;100126.84;;;22.91;32.60
56582;BME280;42463;52.214;21.238;2023-05-23T08:49:34;100126.68;;;22.99;32.34
56582;BME280;42463;52.214;21.238;2023-05-23T08:51:42;100120.48;;;23.05;32.92
56582;BME280;42463;52.214;21.238;2023-05-23T08:53:54;100118.39;;;23.13;32.64
56582;BME280;42463;52.214;21.238;2023-05-23T08:56:01;100121.69;;;23.20;32.02
56582;BME280;42463;52.214;21.238;2023-05-23T08:58:13;100122.52;;;23.26;31.54
56582;BME280;42463;52.214;21.238;2023-05-23T09:00:25;100121.62;;;23.30;31.65
56582;BME280;42463;52.214;21.238;2023-05-23T09:02:33;100119.05;;;23.36;31.38
56582;BME280;42463;52.214;21.238;2023-05-23T09:04:47;100112.98;;;23.39;30.47
56582;BME280;42463;52.214;21.238;2023-05-23T09:06:58;100106.75;;;23.40;31.18
56582;BME280;42463;52.214;21.238;2023-05-23T09:09:04;100112.83;;;23.52;31.27
56582;BME280;42463;52.214;21.238;2023-05-23T09:11:11;100114.08;;;23.58;30.12
56582;BME280;42463;52.214;21.238;2023-05-23T09:13:18;100114.91;;;23.63;29.33
56582;BME280;42463;52.214;21.238;2023-05-23T09:15:25;100113.27;;;23.66;29.26
56582;BME280;42463;52.214;21.238;2023-05-23T09:17:32;100114.09;;;23.67;29.38
56582;BME280;42463;52.214;21.238;2023-05-23T09:19:42;100113.11;;;23.66;29.63
56582;BME280;42463;52.214;21.238;2023-05-23T09:22:02;100104.16;;;23.65;29.55
56582;BME280;42463;52.214;21.238;2023-05-23T09:24:23;100111.05;;;23.71;29.34
56582;BME280;42463;52.214;21.238;2023-05-23T09:26:37;100110.96;;;23.73;29.51
56582;BME280;42463;52.214;21.238;2023-05-23T09:28:43;100109.91;;;23.75;28.91
56582;BME280;42463;52.214;21.238;2023-05-23T09:30:58;100108.86;;;23.77;29.02
56582;BME280;42463;52.214;21.238;2023-05-23T09:33:03;100112.05;;;23.83;29.19
56582;BME280;42463;52.214;21.238;2023-05-23T09:35:10;100110.04;;;23.87;29.33
56582;BME280;42463;52.214;21.238;2023-05-23T09:37:17;100110.81;;;23.92;29.56
56582;BME280;42463;52.214;21.238;2023-05-23T09:39:23;100108.20;;;23.97;29.69
56582;BME280;42463;52.214;21.238;2023-05-23T09:41:31;100110.13;;;24.00;29.02
56582;BME280;42463;52.214;21.238;2023-05-23T09:43:38;100117.80;;;24.03;28.71
56582;BME280;42463;52.214;21.238;2023-05-23T09:45:43;100109.14;;;24.02;28.73
56582;BME280;42463;52.214;21.238;2023-05-23T09:47:52;100107.14;;;24.04;29.00
56582;BME280;42463;52.214;21.238;2023-05-23T09:49:58;100102.79;;;24.07;28.97
56582;BME280;42463;52.214;21.238;2023-05-23T09:52:04;100098.42;;;24.12;28.93
56582;BME280;42463;52.214;21.238;2023-05-23T09:54:11;100100.02;;;24.15;28.47
56582;BME280;42463;52.214;21.238;2023-05-23T09:56:17;100100.45;;;24.16;28.32
56582;BME280;42463;52.214;21.238;2023-05-23T09:58:24;100103.86;;;24.16;27.92
56582;BME280;42463;52.214;21.238;2023-05-23T10:00:31;100105.67;;;24.19;28.39
56582;BME280;42463;52.214;21.238;2023-05-23T10:02:54;100100.36;;;24.25;28.35
56582;BME280;42463;52.214;21.238;2023-05-23T10:05:04;100096.80;;;24.29;28.51
56582;BME280;42463;52.214;21.238;2023-05-23T10:07:13;100102.77;;;24.33;28.32
56582;BME280;42463;52.214;21.238;2023-05-23T10:09:23;100097.98;;;24.35;28.20
56582;BME280;42463;52.214;21.238;2023-05-23T10:14:09;100096.35;;;24.45;28.45
56582;BME280;42463;52.214;21.238;2023-05-23T10:16:19;100096.45;;;24.52;28.04
56582;BME280;42463;52.214;21.238;2023-05-23T10:18:29;100088.75;;;24.57;27.69
56582;BME280;42463;52.214;21.238;2023-05-23T10:20:41;100086.23;;;24.64;27.70
56582;BME280;42463;52.214;21.238;2023-05-23T10:22:48;100090.34;;;24.69;27.54
56582;BME280;42463;52.214;21.238;2023-05-23T10:24:54;100090.39;;;24.71;27.76
56582;BME280;42463;52.214;21.238;2023-05-23T10:27:00;100082.67;;;24.76;27.71
56582;BME280;42463;52.214;21.238;2023-05-23T10:29:07;100084.41;;;24.76;26.92
56582;BME280;42463;52.214;21.238;2023-05-23T10:31:12;100080.44;;;24.76;27.46
56582;BME280;42463;52.214;21.238;2023-05-23T10:33:18;100083.25;;;24.77;27.46
56582;BME280;42463;52.214;21.238;2023-05-23T10:35:35;100080.05;;;24.73;27.49
56582;BME280;42463;52.214;21.238;2023-05-23T10:37:52;100078.23;;;24.67;27.62
56582;BME280;42463;52.214;21.238;2023-05-23T10:40:04;100084.13;;;24.66;27.57
56582;BME280;42463;52.214;21.238;2023-05-23T10:42:15;100085.73;;;24.66;28.24
56582;BME280;42463;52.214;21.238;2023-05-23T10:44:25;100087.95;;;24.69;28.24
56582;BME280;42463;52.214;21.238;2023-05-23T10:46:52;100082.74;;;24.70;27.86
56582;BME280;42463;52.214;21.238;2023-05-23T10:48:59;100072.85;;;24.70;28.02
56582;BME280;42463;52.214;21.238;2023-05-23T10:51:06;100070.77;;;24.76;28.60
56582;BME280;42463;52.214;21.238;2023-05-23T10:53:16;100076.34;;;24.83;28.38
56582;BME280;42463;52.214;21.238;2023-05-23T10:55:22;100071.25;;;24.86;28.31
56582;BME280;42463;52.214;21.238;2023-05-23T10:57:28;100070.66;;;24.91;28.64
56582;BME280;42463;52.214;21.238;2023-05-23T10:59:33;100074.41;;;24.97;28.78
56582;BME280;42463;52.214;21.238;2023-05-23T11:01:41;100071.27;;;25.03;28.40
56582;BME280;42463;52.214;21.238;2023-05-23T11:03:51;100069.88;;;25.05;27.68
56582;BME280;42463;52.214;21.238;2023-05-23T11:05:57;100067.63;;;25.04;27.71